Time;durP1;ratioP1;P1;durP2;ratioP2;P2;SDS_P1;SDS_P2;PMS_P1;PMS_P2;Temp;Humidity;BMP_temperature;BMP_pressure;BME280_temperature;BME280_humidity;BME280_pressure;Samples;Min_cycle;Max_cycle;Signal;HPM_P1;HPM_P2
2024/02/07 00:00:17;;;;;;;5.10;0.32;;;6.60;99.90;;;;;;5033732;28;20029;-72
2024/02/07 00:02:43;;;;;;;5.85;0.30;;;6.50;99.90;;;;;;5033529;28;20112;-72
2024/02/07 00:05:08;;;;;;;3.63;0.30;;;6.30;99.90;;;;;;5051147;28;20075;-73
2024/02/07 00:07:34;;;;;;;10.82;0.30;;;6.20;99.90;;;;;;5033909;28;20517;-73
2024/02/07 00:10:00;;;;;;;4.03;0.50;;;6.10;99.90;;;;;;5033517;28;20424;-72
2024/02/07 00:12:25;;;;;;;5.40;0.38;;;5.90;99.90;;;;;;5028424;28;20101;-72
2024/02/07 00:14:51;;;;;;;6.15;0.98;;;5.80;99.90;;;;;;5043632;28;20025;-72
2024/02/07 00:17:17;;;;;;;5.97;0.50;;;5.80;99.90;;;;;;5052192;28;20029;-72
2024/02/07 00:19:42;;;;;;;7.43;0.43;;;5.70;99.90;;;;;;5053015;28;20013;-73
2024/02/07 00:22:08;;;;;;;6.47;0.90;;;5.70;99.90;;;;;;5034099;28;20091;-72
2024/02/07 00:24:33;;;;;;;6.70;0.45;;;5.70;99.90;;;;;;5039257;28;20024;-72
2024/02/07 00:26:59;;;;;;;7.40;0.50;;;5.60;99.90;;;;;;5035169;28;20045;-72
2024/02/07 00:29:25;;;;;;;4.72;0.25;;;5.60;99.90;;;;;;5032939;28;20117;-72
2024/02/07 00:31:50;;;;;;;6.88;0.30;;;5.70;99.90;;;;;;5032914;28;20398;-72
2024/02/07 00:34:16;;;;;;;6.03;0.30;;;5.60;99.90;;;;;;5033154;28;20136;-72
2024/02/07 00:36:42;;;;;;;6.47;0.20;;;5.60;99.90;;;;;;5052537;28;20033;-72
2024/02/07 00:39:07;;;;;;;3.42;0.30;;;5.60;99.90;;;;;;5053413;28;20025;-72
2024/02/07 00:41:33;;;;;;;6.15;0.17;;;5.60;99.90;;;;;;5050239;28;20108;-72
2024/02/07 00:43:59;;;;;;;3.00;0.20;;;5.60;99.90;;;;;;5032435;28;20052;-72
2024/02/07 00:46:24;;;;;;;9.52;0.30;;;5.60;99.90;;;;;;5032989;28;20094;-72
2024/02/07 00:48:50;;;;;;;6.15;0.43;;;5.60;99.90;;;;;;5032251;28;20048;-72
2024/02/07 00:51:15;;;;;;;9.30;0.85;;;5.60;99.90;;;;;;5032755;28;20057;-72
2024/02/07 00:53:42;;;;;;;8.45;0.47;;;5.60;99.90;;;;;;5036098;28;20021;-72
2024/02/07 00:56:07;;;;;;;4.30;0.32;;;5.60;99.90;;;;;;5052108;28;20238;-72
2024/02/07 00:58:34;;;;;;;3.80;0.20;;;5.60;99.90;;;;;;5049013;28;20134;-72
2024/02/07 01:00:59;;;;;;;2.42;0.30;;;5.60;99.90;;;;;;5040452;28;20065;-72
2024/02/07 01:03:25;;;;;;;5.43;0.73;;;5.60;99.90;;;;;;5032540;28;20061;-72
2024/02/07 01:05:50;;;;;;;5.13;0.30;;;5.60;99.90;;;;;;5030576;28;20029;-72
2024/02/07 01:08:17;;;;;;;5.38;0.30;;;5.60;99.90;;;;;;5032579;28;20029;-72
2024/02/07 01:10:44;;;;;;;4.57;0.20;;;5.60;99.90;;;;;;5032031;28;20021;-72
2024/02/07 01:13:09;;;;;;;10.32;0.50;;;5.60;99.90;;;;;;5039161;28;20025;-72
2024/02/07 01:15:35;;;;;;;6.40;0.85;;;5.60;99.90;;;;;;5032347;28;20071;-72
2024/02/07 01:18:01;;;;;;;3.47;0.30;;;5.60;99.90;;;;;;5032001;28;20811;-72
2024/02/07 01:20:27;;;;;;;6.00;0.32;;;5.60;99.90;;;;;;5032340;28;20024;-72
2024/02/07 01:22:52;;;;;;;9.82;0.57;;;5.70;99.90;;;;;;5018830;28;20026;-72
2024/02/07 01:25:18;;;;;;;5.93;0.32;;;5.70;99.90;;;;;;5034546;28;20378;-73
2024/02/07 01:27:44;;;;;;;6.57;0.43;;;5.60;99.90;;;;;;5031476;28;20116;-72
2024/02/07 01:30:12;;;;;;;8.18;0.40;;;5.60;99.90;;;;;;5032197;28;20029;-72
2024/02/07 01:32:42;;;;;;;7.80;0.43;;;5.50;99.90;;;;;;5032109;28;20021;-72
2024/02/07 01:35:11;;;;;;;9.00;0.77;;;5.60;99.90;;;;;;5032261;28;20029;-72
2024/02/07 01:37:38;;;;;;;7.47;0.30;;;5.50;99.90;;;;;;5025047;28;20375;-72
2024/02/07 01:40:09;;;;;;;5.20;0.40;;;5.50;99.90;;;;;;5023624;28;20032;-72
2024/02/07 01:42:39;;;;;;;6.72;0.40;;;5.50;99.90;;;;;;5012202;28;20080;-72
2024/02/07 01:45:34;;;;;;;5.25;0.32;;;5.50;99.90;;;;;;5039067;28;20025;-72
2024/02/07 01:48:00;;;;;;;5.75;0.30;;;5.40;99.90;;;;;;5033101;28;20049;-72
2024/02/07 01:50:27;;;;;;;4.07;0.40;;;5.40;99.90;;;;;;5051586;28;20033;-72
2024/02/07 01:52:55;;;;;;;6.05;0.40;;;5.40;99.90;;;;;;5051314;28;20021;-72
2024/02/07 01:55:21;;;;;;;9.32;0.60;;;5.30;99.90;;;;;;5033581;28;20025;-72
2024/02/07 01:57:50;;;;;;;10.13;0.47;;;5.30;99.90;;;;;;5031324;28;20044;-72
2024/02/07 02:00:15;;;;;;;13.63;0.80;;;5.30;99.90;;;;;;5031483;28;20052;-72
2024/02/07 02:02:44;;;;;;;6.13;0.40;;;5.20;99.90;;;;;;5031637;28;20033;-72
2024/02/07 02:05:11;;;;;;;6.97;0.40;;;5.20;99.90;;;;;;5035699;28;20116;-72
2024/02/07 02:07:36;;;;;;;4.43;0.30;;;5.10;99.90;;;;;;5030002;28;20389;-72
2024/02/07 02:10:04;;;;;;;5.13;0.40;;;5.10;99.90;;;;;;5030975;28;20017;-72
2024/02/07 02:12:30;;;;;;;7.13;0.38;;;5.10;99.90;;;;;;5042471;28;20029;-72
2024/02/07 02:14:56;;;;;;;11.00;0.93;;;5.00;99.90;;;;;;5040876;28;20014;-72
2024/02/07 02:17:22;;;;;;;7.80;0.30;;;5.00;99.90;;;;;;5030414;28;20032;-72
2024/02/07 02:19:50;;;;;;;7.13;0.77;;;5.00;99.90;;;;;;5030907;28;20033;-72
2024/02/07 02:22:30;;;;;;;6.82;0.30;;;5.00;99.90;;;;;;5036665;28;20032;-72
2024/02/07 02:25:17;;;;;;;5.60;0.40;;;5.10;99.90;;;;;;5030845;28;20026;-72
2024/02/07 02:28:31;;;;;;;4.25;0.70;;;5.00;99.90;;;;;;5030981;28;20044;-73
2024/02/07 02:31:01;;;;;;;;;;;5.00;99.90;;;;;;5034711;28;20551;-72
2024/02/07 02:33:30;;;;;;;8.18;0.30;;;5.00;99.90;;;;;;5031458;28;19916;-72
2024/02/07 02:35:58;;;;;;;12.32;0.43;;;4.90;99.90;;;;;;5029938;28;20026;-72
2024/02/07 02:38:25;;;;;;;7.93;0.35;;;4.90;99.90;;;;;;5031453;28;20116;-72
2024/02/07 02:40:52;;;;;;;7.10;0.50;;;4.90;99.90;;;;;;5038647;28;20021;-72
2024/02/07 02:43:19;;;;;;;11.00;0.68;;;4.90;99.90;;;;;;5031155;28;20033;-73
2024/02/07 02:45:45;;;;;;;10.65;0.80;;;4.90;99.90;;;;;;5030832;28;20018;-72
2024/02/07 02:48:10;;;;;;;6.85;0.40;;;4.90;99.90;;;;;;5031083;28;20390;-72
2024/02/07 02:50:36;;;;;;;9.02;0.60;;;4.90;99.90;;;;;;5032210;28;20033;-72
2024/02/07 02:53:02;;;;;;;4.72;0.68;;;4.90;99.90;;;;;;5049644;28;20029;-72
2024/02/07 02:55:29;;;;;;;8.20;0.68;;;4.90;99.90;;;;;;5031760;28;20052;-72
2024/02/07 02:58:00;;;;;;;9.80;0.60;;;4.90;99.90;;;;;;5030409;28;20037;-73
2024/02/07 03:00:27;;;;;;;6.45;0.90;;;4.90;99.90;;;;;;5033362;28;20048;-72
2024/02/07 03:02:56;;;;;;;6.63;0.95;;;4.90;99.90;;;;;;5050269;28;20508;-72
2024/02/07 03:10:37;;;;;;;5.93;1.17;;;5.00;99.90;;;;;;5031231;28;20466;-72
2024/02/07 03:13:02;;;;;;;9.38;1.27;;;5.00;99.90;;;;;;5045983;28;20039;-72
2024/02/07 03:15:28;;;;;;;11.52;1.17;;;5.00;99.90;;;;;;5050954;28;20028;-72
2024/02/07 03:17:54;;;;;;;8.13;1.15;;;5.00;99.90;;;;;;5042547;28;20371;-72
2024/02/07 03:20:20;;;;;;;5.40;0.80;;;5.00;99.90;;;;;;5030909;28;20148;-72
2024/02/07 03:22:46;;;;;;;9.10;0.65;;;5.00;99.90;;;;;;5035397;28;20393;-72
2024/02/07 03:25:16;;;;;;;12.48;0.70;;;4.90;99.90;;;;;;5050169;28;20032;-73
2024/02/07 03:27:46;;;;;;;7.72;0.47;;;4.80;99.90;;;;;;5046218;28;20437;-72
2024/02/07 03:30:16;;;;;;;5.05;0.40;;;4.70;99.90;;;;;;5034603;28;20112;-72
2024/02/07 03:32:44;;;;;;;5.20;0.50;;;4.70;99.90;;;;;;5033642;28;20386;-72
2024/02/07 03:35:11;;;;;;;11.52;0.90;;;4.60;99.90;;;;;;5054112;28;20429;-73
2024/02/07 03:37:38;;;;;;;9.07;0.63;;;4.50;99.90;;;;;;5040623;28;20467;-72
2024/02/07 03:40:05;;;;;;;8.88;0.63;;;4.50;99.90;;;;;;5033871;28;20508;-72
2024/02/07 03:42:31;;;;;;;7.20;0.50;;;4.50;99.90;;;;;;5033896;28;20026;-72
2024/02/07 03:45:03;;;;;;;5.20;0.68;;;4.40;99.90;;;;;;5033873;28;20381;-72
2024/02/07 03:47:30;;;;;;;5.00;0.50;;;4.40;99.90;;;;;;5041636;28;20475;-72
2024/02/07 03:49:57;;;;;;;4.90;0.45;;;4.30;99.90;;;;;;5038358;28;20540;-72
2024/02/07 03:52:22;;;;;;;9.27;0.45;;;4.30;99.90;;;;;;5038305;28;20017;-72
2024/02/07 03:54:51;;;;;;;1.73;0.40;;;4.20;99.90;;;;;;5045157;28;20041;-73
2024/02/07 03:57:20;;;;;;;14.30;0.52;;;4.10;99.90;;;;;;5033619;28;20067;-72
2024/02/07 03:59:49;;;;;;;5.82;0.95;;;4.10;99.90;;;;;;5033937;28;20034;-72
2024/02/07 04:02:21;;;;;;;6.65;0.52;;;4.10;99.90;;;;;;5032009;28;20037;-72
2024/02/07 04:04:50;;;;;;;10.00;0.30;;;4.10;99.90;;;;;;5026003;28;20025;-72
2024/02/07 04:07:20;;;;;;;5.90;0.35;;;4.10;99.90;;;;;;5033660;28;20109;-72
2024/02/07 04:09:46;;;;;;;10.13;0.90;;;4.00;99.90;;;;;;5033113;28;20022;-72
2024/02/07 05:17:17;;;;;;;10.55;1.23;;;4.00;99.90;;;;;;5032344;28;20397;-72
2024/02/07 05:19:42;;;;;;;11.52;0.40;;;4.00;99.90;;;;;;5032205;28;20060;-72
2024/02/07 05:22:08;;;;;;;12.30;0.73;;;4.00;99.90;;;;;;5041714;28;20064;-72
2024/02/07 05:24:35;;;;;;;9.43;0.93;;;4.00;99.90;;;;;;5049970;28;20477;-72
2024/02/07 05:27:06;;;;;;;9.63;0.40;;;4.00;99.90;;;;;;5031954;28;20109;-72
2024/02/07 05:29:35;;;;;;;11.40;0.50;;;4.00;99.90;;;;;;5032404;28;20021;-72
2024/02/07 05:32:01;;;;;;;5.85;0.40;;;4.00;99.90;;;;;;5036399;28;20104;-72
2024/02/07 05:34:27;;;;;;;14.02;1.55;;;4.00;99.90;;;;;;5050781;28;20029;-72
2024/02/07 05:36:52;;;;;;;9.73;0.70;;;4.10;99.90;;;;;;5036727;28;20508;-72
2024/02/07 05:39:18;;;;;;;12.35;0.50;;;4.10;99.90;;;;;;5031986;28;20104;-72
2024/02/07 05:41:43;;;;;;;10.77;0.90;;;4.10;99.90;;;;;;5031754;28;20026;-72
2024/02/07 05:44:10;;;;;;;15.40;1.80;;;4.10;99.90;;;;;;5050695;28;20384;-72
2024/02/07 05:46:39;;;;;;;10.20;0.70;;;4.10;99.90;;;;;;5051608;28;20037;-72
2024/02/07 05:49:05;;;;;;;12.80;0.70;;;4.10;99.90;;;;;;5032380;28;20049;-72
2024/02/07 05:51:30;;;;;;;14.18;0.70;;;4.10;99.90;;;;;;5031822;28;20031;-72
2024/02/07 05:53:57;;;;;;;11.90;0.70;;;4.10;99.90;;;;;;5031244;28;20127;-72
2024/02/07 05:56:23;;;;;;;11.45;0.57;;;4.10;99.90;;;;;;5031709;28;20022;-72
2024/02/07 05:58:51;;;;;;;11.82;0.60;;;4.10;99.90;;;;;;5018941;28;20026;-72
2024/02/07 06:01:17;;;;;;;8.43;1.50;;;4.10;99.90;;;;;;5026873;28;20373;-72
2024/02/07 06:03:50;;;;;;;7.55;0.52;;;4.10;99.90;;;;;;5031086;28;20048;-72
2024/02/07 06:06:29;;;;;;;6.88;0.50;;;4.10;99.90;;;;;;5031666;28;20095;-72
2024/02/07 06:08:57;;;;;;;6.68;0.88;;;4.10;99.90;;;;;;5031348;28;20047;-72
2024/02/07 06:11:28;;;;;;;6.45;0.60;;;4.10;99.90;;;;;;5031671;28;20474;-72
2024/02/07 06:13:54;;;;;;;8.05;0.40;;;4.10;99.90;;;;;;5050710;28;20079;-72
2024/02/07 06:16:20;;;;;;;9.75;0.50;;;4.10;99.90;;;;;;5045659;28;20037;-72
2024/02/07 06:18:46;;;;;;;16.98;0.73;;;4.10;99.90;;;;;;5030938;28;20014;-72
2024/02/07 06:21:11;;;;;;;13.40;1.77;;;4.10;99.90;;;;;;5041388;28;20094;-72
2024/02/07 06:23:37;;;;;;;6.50;0.50;;;4.10;99.90;;;;;;5048935;28;20028;-72
2024/02/07 06:26:02;;;;;;;9.27;0.70;;;4.10;99.90;;;;;;5031028;28;20025;-72
2024/02/07 06:28:28;;;;;;;13.43;0.60;;;4.10;99.90;;;;;;5031064;28;20017;-72
2024/02/07 06:30:54;;;;;;;15.93;0.70;;;4.10;99.90;;;;;;5035279;28;20046;-73
2024/02/07 06:33:19;;;;;;;8.32;0.70;;;4.10;99.90;;;;;;5037994;28;20412;-72
2024/02/07 06:35:45;;;;;;;10.32;1.13;;;4.10;99.90;;;;;;5030620;28;20029;-72
2024/02/07 06:38:11;;;;;;;10.20;0.75;;;4.10;99.90;;;;;;5031329;28;20232;-72
2024/02/07 06:40:36;;;;;;;7.15;0.38;;;4.00;99.90;;;;;;5031632;28;20021;-72
2024/02/07 06:43:03;;;;;;;9.95;0.50;;;4.00;99.90;;;;;;5030477;28;20045;-72
2024/02/07 06:45:29;;;;;;;13.38;0.70;;;4.00;99.90;;;;;;5031293;28;20167;-72
2024/02/07 06:47:56;;;;;;;10.25;0.80;;;4.10;99.90;;;;;;5030499;28;20088;-72
2024/02/07 06:50:23;;;;;;;6.30;0.80;;;4.10;99.90;;;;;;5031079;28;20103;-72
2024/02/07 06:52:49;;;;;;;16.10;0.60;;;4.10;99.90;;;;;;5029952;28;20109;-73
2024/02/07 06:55:15;;;;;;;10.32;1.52;;;4.10;99.90;;;;;;5031003;28;20057;-72
2024/02/07 06:57:41;;;;;;;10.43;0.93;;;4.10;99.90;;;;;;5030345;28;20046;-72
2024/02/07 07:00:07;;;;;;;11.20;0.60;;;4.10;99.90;;;;;;5031000;28;20501;-72
2024/02/07 07:02:33;;;;;;;12.88;0.88;;;4.10;99.90;;;;;;5031631;28;20033;-72
2024/02/07 07:04:59;;;;;;;7.13;0.60;;;4.10;99.90;;;;;;5035037;28;20024;-72
2024/02/07 07:07:24;;;;;;;10.48;0.88;;;4.10;99.90;;;;;;5034981;28;20033;-72
2024/02/07 07:09:50;;;;;;;13.50;1.27;;;4.20;99.90;;;;;;5034167;28;20025;-72
2024/02/07 07:12:16;;;;;;;8.57;0.80;;;4.20;99.90;;;;;;5034360;28;20098;-72
2024/02/07 07:14:43;;;;;;;14.15;0.88;;;4.20;99.90;;;;;;5034419;28;20014;-72
2024/02/07 07:17:08;;;;;;;4.20;0.60;;;4.20;99.90;;;;;;5034911;28;20120;-72
2024/02/07 07:19:34;;;;;;;9.77;0.60;;;4.20;99.90;;;;;;5034710;28;20101;-72
2024/02/07 07:22:00;;;;;;;8.52;0.52;;;4.20;99.90;;;;;;5041505;28;20429;-72
2024/02/07 07:24:25;;;;;;;13.95;0.60;;;4.20;99.90;;;;;;5054606;28;20052;-72
2024/02/07 07:26:51;;;;;;;10.43;0.50;;;4.20;99.90;;;;;;5040863;28;20401;-72
2024/02/07 07:29:17;;;;;;;9.13;0.65;;;4.20;99.90;;;;;;5034618;28;20104;-72
2024/02/07 07:31:43;;;;;;;15.35;0.90;;;4.20;99.90;;;;;;5034152;28;20045;-72
2024/02/07 07:34:09;;;;;;;6.20;0.63;;;4.20;99.90;;;;;;5033668;28;20026;-72
2024/02/07 07:36:34;;;;;;;12.38;1.00;;;4.20;99.90;;;;;;5034250;28;20036;-72
2024/02/07 07:39:00;;;;;;;10.30;0.73;;;4.30;99.90;;;;;;5032803;28;20029;-72
2024/02/07 07:41:26;;;;;;;6.30;0.75;;;4.30;99.90;;;;;;5036886;28;20026;-72
2024/02/07 07:43:52;;;;;;;9.88;0.70;;;4.30;99.90;;;;;;5033830;28;20080;-72
2024/02/07 07:46:18;;;;;;;12.45;0.70;;;4.30;99.90;;;;;;5034106;28;20595;-72
2024/02/07 07:48:44;;;;;;;9.50;0.68;;;4.30;99.90;;;;;;5033633;28;20072;-73
2024/02/07 07:51:12;;;;;;;7.18;0.70;;;4.30;99.90;;;;;;5041587;28;20545;-72
2024/02/07 07:53:37;;;;;;;10.27;0.77;;;4.30;99.90;;;;;;5016503;28;20088;-72
2024/02/07 07:56:03;;;;;;;8.07;1.17;;;4.40;99.90;;;;;;5033330;28;20057;-72
2024/02/07 07:58:29;;;;;;;8.68;1.13;;;4.30;99.90;;;;;;5033840;28;20087;-72
2024/02/07 08:00:54;;;;;;;8.45;0.60;;;4.40;99.90;;;;;;5035248;28;20060;-72
2024/02/07 08:03:20;;;;;;;9.77;0.90;;;4.40;99.90;;;;;;5053518;28;20032;-72
2024/02/07 08:05:46;;;;;;;13.52;0.85;;;4.40;99.90;;;;;;5053578;28;20017;-73
2024/02/07 08:08:12;;;;;;;11.93;1.00;;;4.40;99.90;;;;;;5038488;28;20375;-72
2024/02/07 08:10:37;;;;;;;4.93;0.80;;;4.50;99.90;;;;;;5033809;28;20100;-72
2024/02/07 08:13:03;;;;;;;13.98;1.00;;;4.40;99.90;;;;;;5032381;28;20033;-72
2024/02/07 08:15:29;;;;;;;6.43;0.50;;;4.50;99.90;;;;;;5032217;28;20097;-72
2024/02/07 08:17:56;;;;;;;10.50;1.65;;;4.40;99.90;;;;;;5033085;28;20144;-72
2024/02/07 08:20:24;;;;;;;10.27;0.68;;;4.40;99.90;;;;;;5033631;28;20018;-72
2024/02/07 08:22:49;;;;;;;8.32;0.80;;;4.50;99.90;;;;;;5043094;28;20044;-72
2024/02/07 08:25:15;;;;;;;8.57;0.95;;;4.50;99.90;;;;;;5052018;28;20029;-72
2024/02/07 08:27:40;;;;;;;11.10;0.70;;;4.50;99.90;;;;;;5031839;28;20060;-72
2024/02/07 08:30:07;;;;;;;10.15;0.70;;;4.50;99.90;;;;;;5032883;28;20095;-72
2024/02/07 08:32:33;;;;;;;14.73;0.95;;;4.60;99.90;;;;;;5039834;28;20029;-72
2024/02/07 08:34:59;;;;;;;11.90;1.58;;;4.60;99.90;;;;;;5033292;28;20052;-72
2024/02/07 08:37:26;;;;;;;13.48;1.52;;;4.60;99.90;;;;;;5033183;28;20379;-72
2024/02/07 08:39:55;;;;;;;16.63;1.05;;;4.60;99.90;;;;;;5023268;28;20026;-72
2024/02/07 08:42:21;;;;;;;10.45;0.80;;;4.70;99.90;;;;;;5027946;28;20025;-72
2024/02/07 08:44:47;;;;;;;12.75;1.23;;;4.70;99.90;;;;;;5032649;28;20028;-73
2024/02/07 08:47:13;;;;;;;9.75;0.95;;;4.70;99.90;;;;;;5032583;28;20409;-73
2024/02/07 08:49:39;;;;;;;7.93;1.20;;;4.80;99.90;;;;;;5021391;28;20038;-72
2024/02/07 08:52:05;;;;;;;13.00;1.50;;;4.80;99.90;;;;;;5039017;28;20040;-72
2024/02/07 08:54:33;;;;;;;9.70;1.00;;;4.80;99.90;;;;;;5052350;28;20021;-72
2024/02/07 08:56:59;;;;;;;14.15;1.20;;;4.80;99.90;;;;;;5032131;28;20042;-72
2024/02/07 08:59:24;;;;;;;13.50;0.93;;;4.90;99.90;;;;;;5032820;28;20381;-72
2024/02/07 09:01:50;;;;;;;11.60;1.00;;;4.80;99.90;;;;;;5032043;28;20029;-72
2024/02/07 09:04:15;;;;;;;9.10;1.70;;;4.90;99.90;;;;;;5032484;28;20029;-72
2024/02/07 09:06:41;;;;;;;7.95;0.93;;;4.90;99.90;;;;;;5032512;28;20025;-72
2024/02/07 09:09:06;;;;;;;16.52;2.05;;;4.90;99.90;;;;;;5032490;28;20025;-72
2024/02/07 09:11:32;;;;;;;12.35;1.30;;;4.90;99.90;;;;;;5039810;28;20036;-72
2024/02/07 09:13:58;;;;;;;13.88;1.50;;;4.90;99.90;;;;;;5032126;28;20454;-72
2024/02/07 09:16:24;;;;;;;20.48;1.75;;;4.90;99.90;;;;;;5032306;28;20091;-72
2024/02/07 09:18:52;;;;;;;10.75;0.95;;;4.90;99.90;;;;;;5031754;28;20025;-73
2024/02/07 09:21:18;;;;;;;10.63;1.30;;;4.90;99.90;;;;;;5038173;28;20025;-72
2024/02/07 09:23:46;;;;;;;10.55;1.55;;;4.90;99.90;;;;;;5044137;28;20056;-72
2024/02/07 09:26:11;;;;;;;11.95;1.75;;;5.00;99.90;;;;;;5031564;28;20017;-73
2024/02/07 09:28:37;;;;;;;9.18;1.48;;;5.00;99.90;;;;;;5032239;28;20029;-72
2024/02/07 09:31:02;;;;;;;10.93;1.67;;;4.90;99.90;;;;;;5031934;28;20035;-72
2024/02/07 09:33:28;;;;;;;14.13;2.15;;;5.00;99.90;;;;;;5042576;28;20045;-72
2024/02/07 09:35:57;;;;;;;11.90;2.53;;;5.00;99.90;;;;;;5036780;28;20024;-72
2024/02/07 09:38:26;;;;;;;12.10;1.63;;;5.00;99.90;;;;;;5051975;28;20093;-72
2024/02/07 09:40:55;;;;;;;12.88;2.63;;;5.00;99.90;;;;;;5011501;28;20022;-73
2024/02/07 09:43:23;;;;;;;14.38;2.67;;;5.10;99.90;;;;;;5028819;28;20056;-72
2024/02/07 09:45:59;;;;;;;12.95;1.80;;;5.10;99.90;;;;;;5031082;28;20021;-72
2024/02/07 09:48:26;;;;;;;10.73;1.83;;;5.20;99.90;;;;;;5031421;28;20045;-72
2024/02/07 09:50:59;;;;;;;18.85;3.33;;;5.20;99.90;;;;;;5031130;28;20017;-72
2024/02/07 09:53:27;;;;;;;16.50;3.15;;;5.20;99.90;;;;;;5030985;28;20089;-72
2024/02/07 09:55:54;;;;;;;15.70;3.63;;;5.20;99.90;;;;;;5030981;28;20099;-72
2024/02/07 09:58:20;;;;;;;7.47;2.40;;;5.20;99.90;;;;;;5031275;28;20033;-72
2024/02/07 10:00:49;;;;;;;14.02;3.13;;;5.20;99.90;;;;;;5031331;28;20412;-73
2024/02/07 10:03:17;;;;;;;16.08;3.35;;;5.30;99.90;;;;;;5037671;28;20071;-72
2024/02/07 10:05:50;;;;;;;15.40;2.17;;;5.30;99.90;;;;;;5032219;28;20076;-73
2024/02/07 10:08:16;;;;;;;19.33;2.55;;;5.40;99.90;;;;;;5031484;28;20496;-72
2024/02/07 10:10:46;;;;;;;16.40;2.20;;;5.50;99.90;;;;;;5030738;28;20524;-74
2024/02/07 10:13:14;;;;;;;20.00;1.95;;;5.50;99.90;;;;;;5042384;28;20113;-72
2024/02/07 10:15:42;;;;;;;17.65;3.30;;;5.60;99.90;;;;;;5031542;28;20036;-72
2024/02/07 10:18:08;;;;;;;17.70;3.42;;;5.70;99.90;;;;;;5031229;28;20037;-72
2024/02/07 10:20:33;;;;;;;20.35;3.47;;;5.80;99.90;;;;;;5031127;28;20026;-72
2024/02/07 10:22:59;;;;;;;18.85;2.83;;;5.90;99.90;;;;;;5043413;28;20025;-72
2024/02/07 10:25:24;;;;;;;14.75;2.30;;;6.00;99.90;;;;;;5050828;28;20484;-72
2024/02/07 10:28:04;;;;;;;19.88;3.22;;;6.10;99.90;;;;;;5040115;28;20037;-72
2024/02/07 10:30:30;;;;;;;23.77;3.08;;;6.20;99.90;;;;;;5031334;28;20112;-72
2024/02/07 10:32:55;;;;;;;16.48;2.13;;;6.20;99.90;;;;;;5029976;28;20097;-73
2024/02/07 10:35:22;;;;;;;10.63;1.83;;;6.20;99.90;;;;;;5029335;28;20522;-72
2024/02/07 10:37:52;;;;;;;15.35;2.65;;;6.10;99.90;;;;;;5030695;28;20036;-73
2024/02/07 10:40:19;;;;;;;21.98;1.77;;;6.20;99.90;;;;;;5035341;28;20030;-72
2024/02/07 10:42:56;;;;;;;16.38;2.65;;;6.20;99.90;;;;;;5037525;28;20064;-73
2024/02/07 10:45:22;;;;;;;13.02;1.52;;;6.30;99.90;;;;;;5047459;28;20033;-72
2024/02/07 10:47:51;;;;;;;13.20;1.83;;;6.30;99.90;;;;;;5033967;28;20046;-73
2024/02/07 10:50:17;;;;;;;15.70;2.20;;;6.30;99.90;;;;;;5035083;28;20028;-72
2024/02/07 10:52:43;;;;;;;15.40;1.73;;;6.30;99.90;;;;;;5034492;28;20025;-72
2024/02/07 10:55:10;;;;;;;18.88;2.83;;;6.40;99.90;;;;;;5054059;28;20031;-72
2024/02/07 10:57:41;;;;;;;20.50;2.13;;;6.50;99.90;;;;;;5054581;28;20037;-72
2024/02/07 11:00:07;;;;;;;14.80;1.73;;;6.50;99.90;;;;;;5053651;28;20523;-72
2024/02/07 11:02:33;;;;;;;13.98;2.13;;;6.60;99.90;;;;;;5036526;28;20028;-73
2024/02/07 11:05:00;;;;;;;21.95;2.25;;;6.70;99.90;;;;;;5043813;28;20021;-72
2024/02/07 11:07:26;;;;;;;8.55;1.27;;;6.70;99.90;;;;;;5034400;28;20065;-72
2024/02/07 11:09:53;;;;;;;14.98;1.58;;;6.70;99.90;;;;;;5034394;28;20041;-72
2024/02/07 11:12:19;;;;;;;14.30;1.50;;;6.70;99.90;;;;;;5035827;28;20106;-72
2024/02/07 11:14:46;;;;;;;14.25;1.92;;;6.70;99.90;;;;;;5033755;28;20481;-73
2024/02/07 11:17:13;;;;;;;14.23;1.50;;;6.70;99.90;;;;;;5034609;28;20393;-72
2024/02/07 11:19:40;;;;;;;12.63;1.38;;;6.80;99.90;;;;;;5034852;28;20428;-73
2024/02/07 11:22:17;;;;;;;16.52;1.80;;;6.80;99.90;;;;;;5034005;28;20397;-72
2024/02/07 11:24:45;;;;;;;13.63;1.20;;;6.90;99.90;;;;;;5026208;28;20053;-73
2024/02/07 11:27:12;;;;;;;21.65;2.85;;;6.90;99.90;;;;;;5033948;28;20025;-73
2024/02/07 11:29:37;;;;;;;14.77;1.40;;;7.00;99.90;;;;;;5034202;28;20029;-73
2024/02/07 11:32:05;;;;;;;14.13;1.75;;;7.10;99.90;;;;;;5033903;28;20025;-73
2024/02/07 11:34:31;;;;;;;16.88;1.55;;;7.10;99.90;;;;;;5038578;28;20040;-73
2024/02/07 11:37:03;;;;;;;23.83;1.83;;;7.00;99.90;;;;;;5034069;28;20037;-73
2024/02/07 11:39:36;;;;;;;19.20;1.70;;;6.90;99.90;;;;;;5034345;28;20025;-73
2024/02/07 11:42:01;;;;;;;11.95;1.10;;;6.90;99.90;;;;;;5038672;28;20840;-73
2024/02/07 11:44:28;;;;;;;15.50;1.25;;;6.80;99.90;;;;;;5051178;28;20041;-73
2024/02/07 11:46:55;;;;;;;11.77;1.05;;;6.80;99.90;;;;;;5033753;28;20025;-73
2024/02/07 11:49:28;;;;;;;13.68;1.45;;;6.60;99.90;;;;;;5033583;28;20049;-73
2024/02/07 11:51:59;;;;;;;14.40;1.75;;;6.60;99.90;;;;;;5033955;28;20049;-73
2024/02/07 11:54:31;;;;;;;12.30;0.90;;;6.60;99.90;;;;;;5033623;28;20044;-73
2024/02/07 11:56:59;;;;;;;15.87;1.20;;;6.70;99.90;;;;;;5033228;28;20037;-73
2024/02/07 11:59:29;;;;;;;19.08;1.15;;;6.70;99.90;;;;;;5033899;28;20032;-73
2024/02/07 12:01:56;;;;;;;20.05;1.77;;;6.70;99.90;;;;;;5033397;28;20485;-73
2024/02/07 12:04:23;;;;;;;11.10;1.15;;;6.80;99.90;;;;;;5051154;28;20040;-73
2024/02/07 12:06:49;;;;;;;23.70;1.75;;;6.80;99.90;;;;;;5037811;28;20477;-73
2024/02/07 12:09:15;;;;;;;16.65;0.93;;;6.90;99.90;;;;;;5032114;28;20466;-73
2024/02/07 12:11:40;;;;;;;15.68;2.30;;;7.00;99.90;;;;;;5033605;28;20032;-73
2024/02/07 12:14:06;;;;;;;16.85;1.13;;;7.00;99.90;;;;;;5039816;28;20026;-73
2024/02/07 12:16:36;;;;;;;18.65;1.70;;;7.00;99.90;;;;;;5033240;28;20061;-73
2024/02/07 12:19:02;;;;;;;20.45;2.72;;;7.10;99.90;;;;;;5032757;28;20040;-73
2024/02/07 12:21:27;;;;;;;9.55;1.10;;;7.20;99.90;;;;;;5033122;28;20488;-73
2024/02/07 12:23:53;;;;;;;13.13;1.58;;;7.20;99.90;;;;;;5033044;28;20022;-73
2024/02/07 12:26:26;;;;;;;16.35;1.40;;;7.20;99.90;;;;;;5050351;28;20025;-73
2024/02/07 12:28:56;;;;;;;16.48;1.90;;;7.20;99.90;;;;;;5040481;28;20053;-73
2024/02/07 12:31:21;;;;;;;10.48;1.17;;;7.20;99.90;;;;;;5033536;28;20063;-73
2024/02/07 12:33:47;;;;;;;11.93;1.27;;;7.20;99.90;;;;;;5032578;28;20029;-73
2024/02/07 12:36:13;;;;;;;11.43;1.38;;;7.10;99.90;;;;;;5033475;28;20512;-73
2024/02/07 12:38:39;;;;;;;9.13;0.90;;;7.10;99.90;;;;;;5033422;28;20022;-74
2024/02/07 12:41:06;;;;;;;14.18;1.42;;;7.10;99.90;;;;;;5032535;28;20021;-74
2024/02/07 12:43:32;;;;;;;17.77;2.10;;;7.00;99.90;;;;;;5035071;28;20018;-73
2024/02/07 12:46:01;;;;;;;14.45;1.20;;;7.00;99.90;;;;;;5032586;28;20029;-74
2024/02/07 12:48:26;;;;;;;19.20;1.13;;;7.10;99.90;;;;;;5031418;28;20504;-73
2024/02/07 12:50:55;;;;;;;13.25;1.42;;;7.00;99.90;;;;;;5032342;28;20095;-73
2024/02/07 12:53:22;;;;;;;15.95;1.50;;;7.10;99.90;;;;;;5038357;28;20045;-73
2024/02/07 12:55:48;;;;;;;11.88;1.92;;;7.00;99.90;;;;;;5049782;28;20021;-74
2024/02/07 12:58:15;;;;;;;15.77;1.27;;;7.00;99.90;;;;;;5032562;28;20569;-73
2024/02/07 13:00:40;;;;;;;15.48;1.33;;;7.00;99.90;;;;;;5032042;28;20025;-73
2024/02/07 13:03:07;;;;;;;20.83;2.13;;;6.90;99.90;;;;;;5046734;28;20047;-73
2024/02/07 13:05:33;;;;;;;17.88;1.10;;;7.00;99.90;;;;;;5052169;28;20096;-73
2024/02/07 13:07:59;;;;;;;15.25;1.33;;;7.00;99.90;;;;;;5032296;28;20148;-74
2024/02/07 13:10:24;;;;;;;14.95;1.13;;;7.00;99.90;;;;;;5032453;28;20027;-74
2024/02/07 13:12:50;;;;;;;15.90;1.38;;;7.00;99.90;;;;;;5040854;28;20060;-74
2024/02/07 13:15:17;;;;;;;8.27;0.88;;;7.10;99.90;;;;;;5038779;28;20032;-73
2024/02/07 13:17:44;;;;;;;15.98;1.42;;;7.00;99.90;;;;;;5031555;28;20037;-73
2024/02/07 13:20:10;;;;;;;14.27;0.98;;;7.10;99.90;;;;;;5032122;28;20091;-74
2024/02/07 13:22:36;;;;;;;18.33;1.30;;;7.20;99.90;;;;;;5036016;28;20119;-74
2024/02/07 13:25:10;;;;;;;18.63;1.95;;;7.20;99.90;;;;;;5031844;28;20076;-74
2024/02/07 13:27:39;;;;;;;17.40;1.67;;;7.20;99.90;;;;;;5032092;28;20030;-74
2024/02/07 13:30:06;;;;;;;14.57;1.35;;;7.10;99.90;;;;;;5032031;28;20049;-74
2024/02/07 13:32:32;;;;;;;14.88;1.77;;;7.10;99.90;;;;;;5031812;28;20080;-74
2024/02/07 13:34:58;;;;;;;10.88;0.95;;;7.00;99.90;;;;;;5031096;28;20417;-74
2024/02/07 13:37:24;;;;;;;12.48;0.98;;;7.00;99.90;;;;;;5031900;28;20045;-74
2024/02/07 13:39:49;;;;;;;17.63;1.23;;;7.00;99.90;;;;;;5031526;28;20053;-74
2024/02/07 13:42:15;;;;;;;12.88;1.00;;;7.10;99.90;;;;;;5031688;28;20033;-73
2024/02/07 13:44:41;;;;;;;16.67;1.08;;;7.10;99.90;;;;;;5031732;28;20021;-73
2024/02/07 13:47:07;;;;;;;16.10;1.25;;;7.00;99.90;;;;;;5030152;28;20128;-74
2024/02/07 13:49:33;;;;;;;15.55;1.10;;;7.00;99.90;;;;;;5030379;28;20036;-74
2024/02/07 13:51:59;;;;;;;18.65;1.90;;;7.10;99.90;;;;;;5033806;28;20037;-74
2024/02/07 13:54:25;;;;;;;14.60;0.98;;;7.00;99.90;;;;;;5046830;28;20036;-74
2024/02/07 13:56:50;;;;;;;17.85;0.85;;;7.10;99.90;;;;;;5033843;28;20036;-74
2024/02/07 13:59:16;;;;;;;19.52;1.20;;;7.10;99.90;;;;;;5031723;28;20029;-74